sensor_id;sensor_type;location;lat;lon;timestamp;P1;durP1;ratioP1;P2;durP2;ratioP2
5416;SDS011;2731;50.754;12.990;2023-06-14T00:00:43;9.40;;;4.38;;
5416;SDS011;2731;50.754;12.990;2023-06-14T00:03:10;5.03;;;3.75;;
5416;SDS011;2731;50.754;12.990;2023-06-14T00:05:39;7.78;;;3.95;;
5416;SDS011;2731;50.754;12.990;2023-06-14T00:08:08;5.13;;;3.80;;
5416;SDS011;2731;50.754;12.990;2023-06-14T00:10:35;6.13;;;4.07;;
5416;SDS011;2731;50.754;12.990;2023-06-14T00:13:01;7.97;;;4.30;;
5416;SDS011;2731;50.754;12.990;2023-06-14T00:15:27;6.07;;;3.60;;
5416;SDS011;2731;50.754;12.990;2023-06-14T00:17:53;5.70;;;4.13;;
5416;SDS011;2731;50.754;12.990;2023-06-14T00:20:20;6.68;;;4.03;;
5416;SDS011;2731;50.754;12.990;2023-06-14T00:22:46;8.98;;;4.60;;
5416;SDS011;2731;50.754;12.990;2023-06-14T00:25:13;7.47;;;3.85;;
5416;SDS011;2731;50.754;12.990;2023-06-14T00:27:39;5.88;;;4.25;;
5416;SDS011;2731;50.754;12.990;2023-06-14T00:30:05;5.15;;;4.03;;
5416;SDS011;2731;50.754;12.990;2023-06-14T00:32:31;6.05;;;4.00;;
5416;SDS011;2731;50.754;12.990;2023-06-14T00:34:57;6.53;;;4.00;;
5416;SDS011;2731;50.754;12.990;2023-06-14T00:37:23;5.90;;;4.40;;
5416;SDS011;2731;50.754;12.990;2023-06-14T00:39:50;4.82;;;4.07;;
5416;SDS011;2731;50.754;12.990;2023-06-14T00:42:25;6.28;;;4.55;;
5416;SDS011;2731;50.754;12.990;2023-06-14T00:44:52;7.18;;;4.35;;
5416;SDS011;2731;50.754;12.990;2023-06-14T00:47:18;5.57;;;4.03;;
5416;SDS011;2731;50.754;12.990;2023-06-14T00:49:45;8.40;;;4.57;;
5416;SDS011;2731;50.754;12.990;2023-06-14T00:52:13;6.43;;;4.60;;
5416;SDS011;2731;50.754;12.990;2023-06-14T00:54:40;6.07;;;4.68;;
5416;SDS011;2731;50.754;12.990;2023-06-14T00:57:07;14.15;;;4.50;;
5416;SDS011;2731;50.754;12.990;2023-06-14T00:59:34;5.40;;;4.38;;
5416;SDS011;2731;50.754;12.990;2023-06-14T01:02:00;7.30;;;5.18;;
5416;SDS011;2731;50.754;12.990;2023-06-14T01:04:26;4.35;;;3.88;;
5416;SDS011;2731;50.754;12.990;2023-06-14T01:12:13;5.95;;;4.07;;
5416;SDS011;2731;50.754;12.990;2023-06-14T01:14:41;5.95;;;4.47;;
5416;SDS011;2731;50.754;12.990;2023-06-14T01:17:07;6.97;;;4.95;;
5416;SDS011;2731;50.754;12.990;2023-06-14T01:19:41;5.20;;;4.70;;
5416;SDS011;2731;50.754;12.990;2023-06-14T01:22:07;5.75;;;4.35;;
5416;SDS011;2731;50.754;12.990;2023-06-14T01:24:34;6.72;;;4.78;;
5416;SDS011;2731;50.754;12.990;2023-06-14T01:27:00;8.23;;;4.05;;
5416;SDS011;2731;50.754;12.990;2023-06-14T01:29:27;7.57;;;4.65;;
5416;SDS011;2731;50.754;12.990;2023-06-14T01:31:58;6.05;;;4.70;;
5416;SDS011;2731;50.754;12.990;2023-06-14T01:34:25;5.68;;;4.68;;
5416;SDS011;2731;50.754;12.990;2023-06-14T01:36:51;5.80;;;4.60;;
5416;SDS011;2731;50.754;12.990;2023-06-14T01:39:17;5.63;;;4.97;;
5416;SDS011;2731;50.754;12.990;2023-06-14T01:41:44;8.15;;;5.13;;
5416;SDS011;2731;50.754;12.990;2023-06-14T01:44:11;7.13;;;5.18;;
5416;SDS011;2731;50.754;12.990;2023-06-14T01:46:38;5.68;;;4.20;;
5416;SDS011;2731;50.754;12.990;2023-06-14T01:49:04;7.35;;;5.25;;
5416;SDS011;2731;50.754;12.990;2023-06-14T01:51:30;8.65;;;5.10;;
5416;SDS011;2731;50.754;12.990;2023-06-14T01:53:56;9.63;;;5.35;;
5416;SDS011;2731;50.754;12.990;2023-06-14T01:56:23;6.53;;;4.85;;
5416;SDS011;2731;50.754;12.990;2023-06-14T01:58:49;15.65;;;5.25;;
5416;SDS011;2731;50.754;12.990;2023-06-14T02:01:15;8.48;;;4.88;;
5416;SDS011;2731;50.754;12.990;2023-06-14T02:03:41;6.75;;;4.75;;
5416;SDS011;2731;50.754;12.990;2023-06-14T02:06:09;8.38;;;4.85;;
5416;SDS011;2731;50.754;12.990;2023-06-14T02:08:37;7.18;;;5.05;;
5416;SDS011;2731;50.754;12.990;2023-06-14T02:11:03;6.70;;;4.32;;
5416;SDS011;2731;50.754;12.990;2023-06-14T02:13:29;6.25;;;4.50;;
5416;SDS011;2731;50.754;12.990;2023-06-14T02:15:55;6.55;;;4.93;;
5416;SDS011;2731;50.754;12.990;2023-06-14T02:18:22;6.78;;;4.35;;
5416;SDS011;2731;50.754;12.990;2023-06-14T02:20:48;7.22;;;5.80;;
5416;SDS011;2731;50.754;12.990;2023-06-14T02:23:14;6.20;;;4.57;;
5416;SDS011;2731;50.754;12.990;2023-06-14T02:25:40;6.43;;;4.32;;
5416;SDS011;2731;50.754;12.990;2023-06-14T02:28:08;8.05;;;5.10;;
5416;SDS011;2731;50.754;12.990;2023-06-14T02:30:34;5.25;;;4.47;;
5416;SDS011;2731;50.754;12.990;2023-06-14T02:33:00;5.75;;;4.18;;
5416;SDS011;2731;50.754;12.990;2023-06-14T02:35:26;6.93;;;4.95;;
5416;SDS011;2731;50.754;12.990;2023-06-14T02:37:52;5.97;;;4.40;;
5416;SDS011;2731;50.754;12.990;2023-06-14T02:40:19;8.07;;;4.88;;
5416;SDS011;2731;50.754;12.990;2023-06-14T02:42:45;8.32;;;5.20;;
5416;SDS011;2731;50.754;12.990;2023-06-14T02:45:11;7.40;;;4.72;;
5416;SDS011;2731;50.754;12.990;2023-06-14T02:47:37;8.10;;;5.45;;
5416;SDS011;2731;50.754;12.990;2023-06-14T02:50:03;8.07;;;4.82;;
5416;SDS011;2731;50.754;12.990;2023-06-14T02:52:30;7.28;;;4.93;;
5416;SDS011;2731;50.754;12.990;2023-06-14T02:54:58;6.50;;;4.85;;
5416;SDS011;2731;50.754;12.990;2023-06-14T02:57:24;8.80;;;4.53;;
5416;SDS011;2731;50.754;12.990;2023-06-14T02:59:50;6.82;;;5.15;;
5416;SDS011;2731;50.754;12.990;2023-06-14T03:02:17;9.27;;;4.75;;
5416;SDS011;2731;50.754;12.990;2023-06-14T03:04:43;7.00;;;4.78;;
5416;SDS011;2731;50.754;12.990;2023-06-14T03:07:11;6.78;;;4.32;;
5416;SDS011;2731;50.754;12.990;2023-06-14T03:09:38;8.00;;;4.80;;
5416;SDS011;2731;50.754;12.990;2023-06-14T03:12:05;6.25;;;4.57;;
5416;SDS011;2731;50.754;12.990;2023-06-14T03:14:35;6.03;;;4.57;;
5416;SDS011;2731;50.754;12.990;2023-06-14T03:17:01;5.95;;;4.45;;
5416;SDS011;2731;50.754;12.990;2023-06-14T03:19:27;5.30;;;4.40;;
5416;SDS011;2731;50.754;12.990;2023-06-14T03:21:53;14.77;;;4.75;;
5416;SDS011;2731;50.754;12.990;2023-06-14T03:24:23;6.35;;;4.35;;
5416;SDS011;2731;50.754;12.990;2023-06-14T03:26:49;5.32;;;4.55;;
5416;SDS011;2731;50.754;12.990;2023-06-14T03:29:15;7.95;;;4.93;;
5416;SDS011;2731;50.754;12.990;2023-06-14T03:31:56;7.43;;;4.70;;
5416;SDS011;2731;50.754;12.990;2023-06-14T03:34:22;6.07;;;4.93;;
5416;SDS011;2731;50.754;12.990;2023-06-14T03:36:48;5.57;;;4.25;;
5416;SDS011;2731;50.754;12.990;2023-06-14T03:39:15;7.38;;;4.88;;
5416;SDS011;2731;50.754;12.990;2023-06-14T03:41:41;7.13;;;4.63;;
5416;SDS011;2731;50.754;12.990;2023-06-14T03:44:07;8.57;;;5.10;;
5416;SDS011;2731;50.754;12.990;2023-06-14T03:46:33;6.32;;;5.15;;
5416;SDS011;2731;50.754;12.990;2023-06-14T03:48:59;6.70;;;4.95;;
5416;SDS011;2731;50.754;12.990;2023-06-14T03:51:25;7.10;;;5.10;;
5416;SDS011;2731;50.754;12.990;2023-06-14T03:53:51;7.45;;;5.47;;
5416;SDS011;2731;50.754;12.990;2023-06-14T03:56:17;5.85;;;4.65;;
5416;SDS011;2731;50.754;12.990;2023-06-14T03:58:43;6.75;;;5.68;;
5416;SDS011;2731;50.754;12.990;2023-06-14T04:01:09;7.78;;;5.57;;
5416;SDS011;2731;50.754;12.990;2023-06-14T04:03:37;6.43;;;5.22;;
5416;SDS011;2731;50.754;12.990;2023-06-14T04:06:05;6.38;;;5.05;;
5416;SDS011;2731;50.754;12.990;2023-06-14T04:08:32;8.68;;;5.78;;
5416;SDS011;2731;50.754;12.990;2023-06-14T04:10:59;7.05;;;5.32;;
5416;SDS011;2731;50.754;12.990;2023-06-14T04:13:25;7.50;;;5.85;;
5416;SDS011;2731;50.754;12.990;2023-06-14T04:15:52;7.63;;;5.53;;
5416;SDS011;2731;50.754;12.990;2023-06-14T04:18:18;10.55;;;6.47;;
5416;SDS011;2731;50.754;12.990;2023-06-14T04:20:44;15.25;;;5.72;;
5416;SDS011;2731;50.754;12.990;2023-06-14T04:23:11;6.25;;;5.32;;
5416;SDS011;2731;50.754;12.990;2023-06-14T04:25:38;7.53;;;5.78;;
5416;SDS011;2731;50.754;12.990;2023-06-14T04:28:05;8.40;;;6.07;;
5416;SDS011;2731;50.754;12.990;2023-06-14T04:30:33;6.63;;;5.32;;
5416;SDS011;2731;50.754;12.990;2023-06-14T04:33:00;9.18;;;6.10;;
5416;SDS011;2731;50.754;12.990;2023-06-14T04:35:30;9.43;;;6.50;;
5416;SDS011;2731;50.754;12.990;2023-06-14T04:37:57;9.18;;;6.05;;
5416;SDS011;2731;50.754;12.990;2023-06-14T04:40:24;8.60;;;6.38;;
5416;SDS011;2731;50.754;12.990;2023-06-14T04:42:50;8.55;;;6.53;;
5416;SDS011;2731;50.754;12.990;2023-06-14T04:45:16;7.60;;;5.40;;
5416;SDS011;2731;50.754;12.990;2023-06-14T04:47:42;10.13;;;6.18;;
5416;SDS011;2731;50.754;12.990;2023-06-14T04:50:09;7.90;;;5.70;;
5416;SDS011;2731;50.754;12.990;2023-06-14T04:52:38;7.60;;;6.00;;
5416;SDS011;2731;50.754;12.990;2023-06-14T04:55:04;7.57;;;5.65;;
5416;SDS011;2731;50.754;12.990;2023-06-14T04:57:31;8.50;;;5.80;;
5416;SDS011;2731;50.754;12.990;2023-06-14T04:59:57;7.65;;;6.18;;
5416;SDS011;2731;50.754;12.990;2023-06-14T05:02:26;8.20;;;5.75;;
5416;SDS011;2731;50.754;12.990;2023-06-14T05:04:52;7.82;;;5.72;;
5416;SDS011;2731;50.754;12.990;2023-06-14T05:07:19;6.25;;;5.38;;
5416;SDS011;2731;50.754;12.990;2023-06-14T05:09:45;8.45;;;5.30;;
5416;SDS011;2731;50.754;12.990;2023-06-14T05:12:11;7.32;;;5.97;;
5416;SDS011;2731;50.754;12.990;2023-06-14T05:14:37;7.90;;;5.63;;
5416;SDS011;2731;50.754;12.990;2023-06-14T05:17:04;6.93;;;5.60;;
5416;SDS011;2731;50.754;12.990;2023-06-14T05:19:30;8.85;;;6.13;;
5416;SDS011;2731;50.754;12.990;2023-06-14T05:21:56;9.65;;;5.80;;
5416;SDS011;2731;50.754;12.990;2023-06-14T05:24:23;7.78;;;6.00;;
5416;SDS011;2731;50.754;12.990;2023-06-14T05:26:49;9.98;;;5.63;;
5416;SDS011;2731;50.754;12.990;2023-06-14T05:29:15;7.65;;;6.00;;
5416;SDS011;2731;50.754;12.990;2023-06-14T05:31:41;7.80;;;5.63;;
5416;SDS011;2731;50.754;12.990;2023-06-14T05:34:07;13.93;;;6.25;;
5416;SDS011;2731;50.754;12.990;2023-06-14T05:36:33;6.68;;;5.03;;
5416;SDS011;2731;50.754;12.990;2023-06-14T05:39:02;10.65;;;5.55;;
5416;SDS011;2731;50.754;12.990;2023-06-14T05:41:29;10.13;;;5.47;;
5416;SDS011;2731;50.754;12.990;2023-06-14T05:43:55;13.35;;;6.60;;
5416;SDS011;2731;50.754;12.990;2023-06-14T05:46:22;7.47;;;5.20;;
5416;SDS011;2731;50.754;12.990;2023-06-14T05:48:50;8.98;;;4.72;;
5416;SDS011;2731;50.754;12.990;2023-06-14T05:51:17;5.65;;;4.80;;
5416;SDS011;2731;50.754;12.990;2023-06-14T05:53:47;8.02;;;5.28;;
5416;SDS011;2731;50.754;12.990;2023-06-14T05:56:14;6.47;;;4.93;;
5416;SDS011;2731;50.754;12.990;2023-06-14T05:58:40;7.68;;;5.15;;
5416;SDS011;2731;50.754;12.990;2023-06-14T06:01:06;6.45;;;4.85;;
5416;SDS011;2731;50.754;12.990;2023-06-14T06:03:32;6.47;;;5.00;;
5416;SDS011;2731;50.754;12.990;2023-06-14T06:05:59;6.82;;;4.53;;
5416;SDS011;2731;50.754;12.990;2023-06-14T06:08:28;5.40;;;4.72;;
5416;SDS011;2731;50.754;12.990;2023-06-14T06:10:55;8.45;;;5.07;;
5416;SDS011;2731;50.754;12.990;2023-06-14T06:13:21;5.95;;;4.72;;
5416;SDS011;2731;50.754;12.990;2023-06-14T06:15:47;9.75;;;4.13;;
5416;SDS011;2731;50.754;12.990;2023-06-14T06:18:13;7.07;;;5.00;;
5416;SDS011;2731;50.754;12.990;2023-06-14T06:20:39;8.35;;;4.10;;
5416;SDS011;2731;50.754;12.990;2023-06-14T06:23:06;5.75;;;4.22;;
5416;SDS011;2731;50.754;12.990;2023-06-14T06:25:32;4.72;;;3.85;;
5416;SDS011;2731;50.754;12.990;2023-06-14T06:27:59;6.32;;;5.00;;
5416;SDS011;2731;50.754;12.990;2023-06-14T06:30:25;6.25;;;4.55;;
5416;SDS011;2731;50.754;12.990;2023-06-14T06:32:51;6.18;;;3.83;;
5416;SDS011;2731;50.754;12.990;2023-06-14T06:35:18;5.50;;;4.60;;
5416;SDS011;2731;50.754;12.990;2023-06-14T06:37:44;5.88;;;4.18;;
5416;SDS011;2731;50.754;12.990;2023-06-14T06:40:10;7.78;;;4.18;;
5416;SDS011;2731;50.754;12.990;2023-06-14T06:42:37;5.30;;;3.95;;
5416;SDS011;2731;50.754;12.990;2023-06-14T06:45:03;4.65;;;3.80;;
5416;SDS011;2731;50.754;12.990;2023-06-14T06:47:30;7.47;;;4.20;;
5416;SDS011;2731;50.754;12.990;2023-06-14T06:49:56;8.05;;;3.88;;
5416;SDS011;2731;50.754;12.990;2023-06-14T06:52:22;5.32;;;3.90;;
5416;SDS011;2731;50.754;12.990;2023-06-14T06:54:48;5.13;;;3.50;;
5416;SDS011;2731;50.754;12.990;2023-06-14T06:57:15;8.23;;;4.32;;
5416;SDS011;2731;50.754;12.990;2023-06-14T06:59:41;6.47;;;3.80;;
5416;SDS011;2731;50.754;12.990;2023-06-14T07:02:07;7.35;;;3.90;;
5416;SDS011;2731;50.754;12.990;2023-06-14T07:04:34;4.47;;;3.45;;
5416;SDS011;2731;50.754;12.990;2023-06-14T07:07:00;28.75;;;16.85;;
5416;SDS011;2731;50.754;12.990;2023-06-14T07:09:26;7.97;;;4.78;;
5416;SDS011;2731;50.754;12.990;2023-06-14T07:11:52;5.90;;;4.20;;
5416;SDS011;2731;50.754;12.990;2023-06-14T07:14:18;4.43;;;3.60;;
5416;SDS011;2731;50.754;12.990;2023-06-14T07:16:48;7.60;;;4.35;;
5416;SDS011;2731;50.754;12.990;2023-06-14T07:19:14;6.90;;;4.65;;
5416;SDS011;2731;50.754;12.990;2023-06-14T07:21:41;5.80;;;3.70;;
5416;SDS011;2731;50.754;12.990;2023-06-14T07:24:07;4.30;;;3.72;;
5416;SDS011;2731;50.754;12.990;2023-06-14T07:26:33;4.25;;;3.85;;
5416;SDS011;2731;50.754;12.990;2023-06-14T07:29:00;7.25;;;4.60;;
5416;SDS011;2731;50.754;12.990;2023-06-14T07:31:26;7.90;;;4.13;;
5416;SDS011;2731;50.754;12.990;2023-06-14T07:33:52;5.22;;;4.15;;
5416;SDS011;2731;50.754;12.990;2023-06-14T07:36:18;6.25;;;4.70;;
5416;SDS011;2731;50.754;12.990;2023-06-14T07:38:45;5.55;;;3.85;;
5416;SDS011;2731;50.754;12.990;2023-06-14T07:41:11;7.57;;;4.00;;
5416;SDS011;2731;50.754;12.990;2023-06-14T07:43:37;5.60;;;4.07;;
5416;SDS011;2731;50.754;12.990;2023-06-14T07:46:04;4.53;;;4.00;;
5416;SDS011;2731;50.754;12.990;2023-06-14T07:48:30;5.55;;;4.10;;
5416;SDS011;2731;50.754;12.990;2023-06-14T07:50:56;6.80;;;4.35;;
5416;SDS011;2731;50.754;12.990;2023-06-14T07:53:22;4.50;;;3.80;;
5416;SDS011;2731;50.754;12.990;2023-06-14T07:55:48;6.93;;;4.22;;
5416;SDS011;2731;50.754;12.990;2023-06-14T07:58:15;5.43;;;4.35;;
5416;SDS011;2731;50.754;12.990;2023-06-14T08:00:41;5.95;;;3.88;;
5416;SDS011;2731;50.754;12.990;2023-06-14T08:03:07;7.63;;;5.05;;
5416;SDS011;2731;50.754;12.990;2023-06-14T08:05:33;6.22;;;4.32;;
5416;SDS011;2731;50.754;12.990;2023-06-14T08:08:01;5.15;;;4.18;;
5416;SDS011;2731;50.754;12.990;2023-06-14T08:10:27;5.00;;;4.30;;
5416;SDS011;2731;50.754;12.990;2023-06-14T08:12:53;6.00;;;3.35;;
5416;SDS011;2731;50.754;12.990;2023-06-14T08:15:19;6.35;;;4.32;;
5416;SDS011;2731;50.754;12.990;2023-06-14T08:17:45;6.25;;;4.38;;
5416;SDS011;2731;50.754;12.990;2023-06-14T08:20:12;4.40;;;3.83;;
5416;SDS011;2731;50.754;12.990;2023-06-14T08:22:38;7.72;;;4.35;;
5416;SDS011;2731;50.754;12.990;2023-06-14T08:25:07;7.75;;;4.38;;
5416;SDS011;2731;50.754;12.990;2023-06-14T08:27:33;5.32;;;4.13;;
5416;SDS011;2731;50.754;12.990;2023-06-14T08:29:59;8.30;;;3.70;;
5416;SDS011;2731;50.754;12.990;2023-06-14T08:32:27;4.95;;;3.38;;
5416;SDS011;2731;50.754;12.990;2023-06-14T08:34:53;4.55;;;3.63;;
5416;SDS011;2731;50.754;12.990;2023-06-14T08:37:19;4.22;;;3.47;;
5416;SDS011;2731;50.754;12.990;2023-06-14T08:39:46;6.15;;;2.88;;
5416;SDS011;2731;50.754;12.990;2023-06-14T08:42:12;5.22;;;4.40;;
5416;SDS011;2731;50.754;12.990;2023-06-14T08:44:40;5.90;;;2.72;;
5416;SDS011;2731;50.754;12.990;2023-06-14T08:47:07;3.40;;;2.97;;
5416;SDS011;2731;50.754;12.990;2023-06-14T08:49:34;8.15;;;3.40;;
5416;SDS011;2731;50.754;12.990;2023-06-14T08:52:01;3.63;;;2.70;;
5416;SDS011;2731;50.754;12.990;2023-06-14T08:54:28;6.18;;;3.35;;
5416;SDS011;2731;50.754;12.990;2023-06-14T08:57:02;7.93;;;2.70;;
5416;SDS011;2731;50.754;12.990;2023-06-14T08:59:29;3.60;;;2.75;;
5416;SDS011;2731;50.754;12.990;2023-06-14T09:01:59;5.32;;;3.30;;
5416;SDS011;2731;50.754;12.990;2023-06-14T09:04:25;4.10;;;2.90;;
5416;SDS011;2731;50.754;12.990;2023-06-14T09:06:55;7.05;;;3.72;;
5416;SDS011;2731;50.754;12.990;2023-06-14T09:09:22;2.95;;;2.60;;
5416;SDS011;2731;50.754;12.990;2023-06-14T09:11:49;4.25;;;3.15;;
5416;SDS011;2731;50.754;12.990;2023-06-14T09:14:15;2.70;;;2.50;;
5416;SDS011;2731;50.754;12.990;2023-06-14T09:16:42;3.10;;;2.70;;
5416;SDS011;2731;50.754;12.990;2023-06-14T09:19:08;2.92;;;2.50;;
5416;SDS011;2731;50.754;12.990;2023-06-14T09:21:34;2.60;;;2.40;;
5416;SDS011;2731;50.754;12.990;2023-06-14T09:24:02;3.83;;;3.17;;
5416;SDS011;2731;50.754;12.990;2023-06-14T09:26:29;5.75;;;2.60;;
5416;SDS011;2731;50.754;12.990;2023-06-14T09:28:55;4.10;;;3.00;;
5416;SDS011;2731;50.754;12.990;2023-06-14T09:31:21;4.88;;;2.90;;
5416;SDS011;2731;50.754;12.990;2023-06-14T09:33:48;5.85;;;3.10;;
5416;SDS011;2731;50.754;12.990;2023-06-14T09:36:15;4.22;;;3.10;;
5416;SDS011;2731;50.754;12.990;2023-06-14T09:38:43;4.82;;;3.00;;
5416;SDS011;2731;50.754;12.990;2023-06-14T09:41:17;3.30;;;3.00;;
5416;SDS011;2731;50.754;12.990;2023-06-14T09:43:43;3.08;;;2.78;;
5416;SDS011;2731;50.754;12.990;2023-06-14T09:46:12;4.90;;;2.90;;
5416;SDS011;2731;50.754;12.990;2023-06-14T09:48:38;5.53;;;2.92;;
5416;SDS011;2731;50.754;12.990;2023-06-14T09:51:08;4.47;;;2.92;;
5416;SDS011;2731;50.754;12.990;2023-06-14T09:53:35;3.20;;;2.47;;
5416;SDS011;2731;50.754;12.990;2023-06-14T09:56:02;7.35;;;2.85;;
5416;SDS011;2731;50.754;12.990;2023-06-14T09:58:28;3.40;;;2.53;;
5416;SDS011;2731;50.754;12.990;2023-06-14T10:00:54;4.57;;;3.20;;
5416;SDS011;2731;50.754;12.990;2023-06-14T10:03:24;4.70;;;2.95;;
5416;SDS011;2731;50.754;12.990;2023-06-14T10:05:51;4.00;;;3.13;;
5416;SDS011;2731;50.754;12.990;2023-06-14T10:08:23;5.50;;;3.42;;
5416;SDS011;2731;50.754;12.990;2023-06-14T10:10:50;4.53;;;3.00;;
5416;SDS011;2731;50.754;12.990;2023-06-14T10:13:17;5.60;;;2.55;;
5416;SDS011;2731;50.754;12.990;2023-06-14T10:15:50;3.05;;;2.65;;
5416;SDS011;2731;50.754;12.990;2023-06-14T10:18:30;3.80;;;3.13;;
5416;SDS011;2731;50.754;12.990;2023-06-14T10:23:43;3.47;;;2.83;;
5416;SDS011;2731;50.754;12.990;2023-06-14T10:26:17;5.50;;;3.17;;
5416;SDS011;2731;50.754;12.990;2023-06-14T10:28:43;5.10;;;3.35;;
5416;SDS011;2731;50.754;12.990;2023-06-14T10:31:20;5.28;;;3.63;;
5416;SDS011;2731;50.754;12.990;2023-06-14T10:33:52;5.25;;;3.28;;
5416;SDS011;2731;50.754;12.990;2023-06-14T10:36:28;4.60;;;3.88;;
5416;SDS011;2731;50.754;12.990;2023-06-14T10:39:06;4.10;;;3.70;;
5416;SDS011;2731;50.754;12.990;2023-06-14T10:41:40;4.20;;;3.55;;
5416;SDS011;2731;50.754;12.990;2023-06-14T10:44:52;3.53;;;3.22;;
5416;SDS011;2731;50.754;12.990;2023-06-14T10:46:52;5.45;;;3.30;;
5416;SDS011;2731;50.754;12.990;2023-06-14T10:49:18;4.45;;;3.63;;
5416;SDS011;2731;50.754;12.990;2023-06-14T10:51:45;3.47;;;3.17;;
5416;SDS011;2731;50.754;12.990;2023-06-14T10:54:15;4.28;;;3.38;;
5416;SDS011;2731;50.754;12.990;2023-06-14T10:56:47;4.97;;;3.33;;
5416;SDS011;2731;50.754;12.990;2023-06-14T10:59:14;3.35;;;2.65;;
5416;SDS011;2731;50.754;12.990;2023-06-14T11:01:41;3.33;;;2.95;;
5416;SDS011;2731;50.754;12.990;2023-06-14T11:04:13;6.43;;;3.33;;
5416;SDS011;2731;50.754;12.990;2023-06-14T11:11:44;3.78;;;2.95;;
5416;SDS011;2731;50.754;12.990;2023-06-14T11:14:11;3.10;;;2.80;;
5416;SDS011;2731;50.754;12.990;2023-06-14T11:16:37;4.00;;;3.28;;
5416;SDS011;2731;50.754;12.990;2023-06-14T11:19:03;3.33;;;3.03;;
5416;SDS011;2731;50.754;12.990;2023-06-14T11:21:31;3.28;;;2.92;;
5416;SDS011;2731;50.754;12.990;2023-06-14T11:23:58;3.65;;;2.92;;
5416;SDS011;2731;50.754;12.990;2023-06-14T11:26:26;4.45;;;2.92;;
5416;SDS011;2731;50.754;12.990;2023-06-14T11:28:54;3.45;;;2.72;;
5416;SDS011;2731;50.754;12.990;2023-06-14T11:31:21;4.05;;;2.90;;
5416;SDS011;2731;50.754;12.990;2023-06-14T11:33:53;2.95;;;2.47;;
5416;SDS011;2731;50.754;12.990;2023-06-14T11:36:19;3.45;;;2.53;;
5416;SDS011;2731;50.754;12.990;2023-06-14T11:38:45;5.53;;;2.72;;
5416;SDS011;2731;50.754;12.990;2023-06-14T11:41:11;2.60;;;2.25;;
5416;SDS011;2731;50.754;12.990;2023-06-14T11:43:37;3.05;;;2.72;;
5416;SDS011;2731;50.754;12.990;2023-06-14T11:46:03;7.10;;;2.97;;
5416;SDS011;2731;50.754;12.990;2023-06-14T11:49:04;2.97;;;2.17;;
5416;SDS011;2731;50.754;12.990;2023-06-14T11:51:23;3.03;;;2.17;;
5416;SDS011;2731;50.754;12.990;2023-06-14T11:53:49;5.70;;;2.38;;
5416;SDS011;2731;50.754;12.990;2023-06-14T11:56:15;2.95;;;2.10;;
5416;SDS011;2731;50.754;12.990;2023-06-14T11:58:44;3.50;;;2.17;;
5416;SDS011;2731;50.754;12.990;2023-06-14T12:01:14;2.55;;;2.35;;
5416;SDS011;2731;50.754;12.990;2023-06-14T12:03:46;2.55;;;2.10;;
5416;SDS011;2731;50.754;12.990;2023-06-14T12:06:13;3.42;;;2.08;;
5416;SDS011;2731;50.754;12.990;2023-06-14T12:08:40;2.45;;;2.10;;
5416;SDS011;2731;50.754;12.990;2023-06-14T12:11:10;4.03;;;2.13;;
5416;SDS011;2731;50.754;12.990;2023-06-14T12:13:40;3.15;;;2.40;;
5416;SDS011;2731;50.754;12.990;2023-06-14T12:16:09;4.55;;;2.20;;
5416;SDS011;2731;50.754;12.990;2023-06-14T12:18:36;5.05;;;2.72;;
5416;SDS011;2731;50.754;12.990;2023-06-14T12:21:03;4.55;;;2.58;;
5416;SDS011;2731;50.754;12.990;2023-06-14T12:23:47;3.60;;;2.67;;
5416;SDS011;2731;50.754;12.990;2023-06-14T12:26:17;2.83;;;2.10;;
5416;SDS011;2731;50.754;12.990;2023-06-14T12:28:47;2.78;;;2.17;;
5416;SDS011;2731;50.754;12.990;2023-06-14T12:31:14;2.95;;;2.30;;
5416;SDS011;2731;50.754;12.990;2023-06-14T12:33:41;4.93;;;2.50;;
5416;SDS011;2731;50.754;12.990;2023-06-14T12:36:08;2.95;;;2.45;;
5416;SDS011;2731;50.754;12.990;2023-06-14T12:38:34;3.17;;;2.40;;
5416;SDS011;2731;50.754;12.990;2023-06-14T12:41:01;3.90;;;2.80;;
5416;SDS011;2731;50.754;12.990;2023-06-14T12:43:27;3.50;;;2.40;;
5416;SDS011;2731;50.754;12.990;2023-06-14T12:45:53;4.68;;;2.70;;
5416;SDS011;2731;50.754;12.990;2023-06-14T12:48:19;3.33;;;3.03;;
5416;SDS011;2731;50.754;12.990;2023-06-14T12:50:45;3.78;;;2.92;;
5416;SDS011;2731;50.754;12.990;2023-06-14T12:53:11;5.13;;;3.50;;
5416;SDS011;2731;50.754;12.990;2023-06-14T12:55:37;4.40;;;3.38;;
5416;SDS011;2731;50.754;12.990;2023-06-14T12:58:03;5.22;;;2.88;;
5416;SDS011;2731;50.754;12.990;2023-06-14T13:00:30;4.22;;;3.17;;
5416;SDS011;2731;50.754;12.990;2023-06-14T13:02:56;7.40;;;3.60;;
5416;SDS011;2731;50.754;12.990;2023-06-14T13:05:22;5.00;;;3.00;;
5416;SDS011;2731;50.754;12.990;2023-06-14T13:07:48;4.03;;;2.92;;
5416;SDS011;2731;50.754;12.990;2023-06-14T13:10:16;18.58;;;4.30;;
5416;SDS011;2731;50.754;12.990;2023-06-14T13:12:42;4.05;;;3.28;;
5416;SDS011;2731;50.754;12.990;2023-06-14T13:15:08;4.57;;;2.70;;
5416;SDS011;2731;50.754;12.990;2023-06-14T13:17:35;6.40;;;3.47;;
5416;SDS011;2731;50.754;12.990;2023-06-14T13:20:05;5.50;;;2.90;;
5416;SDS011;2731;50.754;12.990;2023-06-14T13:22:32;2.42;;;2.20;;
5416;SDS011;2731;50.754;12.990;2023-06-14T13:24:58;5.43;;;2.28;;
5416;SDS011;2731;50.754;12.990;2023-06-14T13:27:25;4.35;;;2.63;;
5416;SDS011;2731;50.754;12.990;2023-06-14T13:29:52;3.08;;;2.50;;
5416;SDS011;2731;50.754;12.990;2023-06-14T13:32:18;5.22;;;2.90;;
5416;SDS011;2731;50.754;12.990;2023-06-14T13:34:44;4.10;;;2.58;;
5416;SDS011;2731;50.754;12.990;2023-06-14T13:37:10;4.45;;;2.80;;
5416;SDS011;2731;50.754;12.990;2023-06-14T13:39:36;3.22;;;2.60;;
5416;SDS011;2731;50.754;12.990;2023-06-14T13:42:02;4.32;;;3.15;;
5416;SDS011;2731;50.754;12.990;2023-06-14T13:44:28;5.68;;;2.67;;
5416;SDS011;2731;50.754;12.990;2023-06-14T13:46:54;3.15;;;2.63;;
5416;SDS011;2731;50.754;12.990;2023-06-14T13:49:21;2.63;;;2.40;;
5416;SDS011;2731;50.754;12.990;2023-06-14T13:51:47;5.10;;;2.50;;
5416;SDS011;2731;50.754;12.990;2023-06-14T13:54:13;4.72;;;3.08;;
5416;SDS011;2731;50.754;12.990;2023-06-14T13:56:43;5.53;;;2.30;;
5416;SDS011;2731;50.754;12.990;2023-06-14T13:59:09;4.57;;;2.65;;
5416;SDS011;2731;50.754;12.990;2023-06-14T14:01:36;4.22;;;2.83;;
5416;SDS011;2731;50.754;12.990;2023-06-14T14:04:02;5.55;;;3.45;;
5416;SDS011;2731;50.754;12.990;2023-06-14T14:06:28;4.10;;;2.88;;
5416;SDS011;2731;50.754;12.990;2023-06-14T14:08:54;2.95;;;2.60;;
5416;SDS011;2731;50.754;12.990;2023-06-14T14:11:20;3.15;;;2.80;;
5416;SDS011;2731;50.754;12.990;2023-06-14T14:13:46;2.90;;;2.60;;
5416;SDS011;2731;50.754;12.990;2023-06-14T14:16:12;8.60;;;3.17;;
5416;SDS011;2731;50.754;12.990;2023-06-14T14:18:39;6.40;;;3.25;;
5416;SDS011;2731;50.754;12.990;2023-06-14T14:21:05;3.63;;;3.28;;
5416;SDS011;2731;50.754;12.990;2023-06-14T14:23:31;4.60;;;3.17;;
5416;SDS011;2731;50.754;12.990;2023-06-14T14:25:58;4.47;;;2.92;;
5416;SDS011;2731;50.754;12.990;2023-06-14T14:28:28;3.08;;;2.78;;
5416;SDS011;2731;50.754;12.990;2023-06-14T14:30:54;2.58;;;2.38;;
5416;SDS011;2731;50.754;12.990;2023-06-14T14:33:20;6.15;;;3.13;;
5416;SDS011;2731;50.754;12.990;2023-06-14T14:35:46;3.10;;;2.45;;
5416;SDS011;2731;50.754;12.990;2023-06-14T14:38:15;3.75;;;2.70;;
5416;SDS011;2731;50.754;12.990;2023-06-14T14:40:42;4.25;;;2.45;;
5416;SDS011;2731;50.754;12.990;2023-06-14T14:43:09;6.30;;;2.70;;
5416;SDS011;2731;50.754;12.990;2023-06-14T14:45:35;4.85;;;2.70;;
5416;SDS011;2731;50.754;12.990;2023-06-14T14:48:02;3.45;;;2.70;;
5416;SDS011;2731;50.754;12.990;2023-06-14T14:50:29;3.30;;;2.63;;
5416;SDS011;2731;50.754;12.990;2023-06-14T14:52:55;3.38;;;2.63;;
5416;SDS011;2731;50.754;12.990;2023-06-14T14:55:21;2.58;;;2.05;;
5416;SDS011;2731;50.754;12.990;2023-06-14T14:57:47;2.88;;;2.60;;
5416;SDS011;2731;50.754;12.990;2023-06-14T15:00:14;3.15;;;2.70;;
5416;SDS011;2731;50.754;12.990;2023-06-14T15:02:40;3.03;;;2.67;;
5416;SDS011;2731;50.754;12.990;2023-06-14T15:05:06;3.40;;;3.10;;
5416;SDS011;2731;50.754;12.990;2023-06-14T15:07:32;2.63;;;2.33;;
5416;SDS011;2731;50.754;12.990;2023-06-14T15:09:59;3.83;;;2.78;;
5416;SDS011;2731;50.754;12.990;2023-06-14T15:12:25;4.20;;;2.38;;